sensor_id;sensor_type;location;lat;lon;timestamp;pressure;altitude;pressure_sealevel;temperature;humidity
50632;BME280;49583;45.590;-122.498;2023-08-12T00:02:06;101182.06;;;32.44;29.48
50632;BME280;49583;45.590;-122.498;2023-08-12T00:04:15;101179.75;;;32.44;29.62
50632;BME280;49583;45.590;-122.498;2023-08-12T00:06:25;101179.08;;;32.43;29.46
50632;BME280;49583;45.590;-122.498;2023-08-12T00:08:36;101177.72;;;32.41;29.53
50632;BME280;49583;45.590;-122.498;2023-08-12T00:10:46;101174.31;;;32.41;29.57
50632;BME280;49583;45.590;-122.498;2023-08-12T00:12:55;101174.20;;;32.40;29.66
50632;BME280;49583;45.590;-122.498;2023-08-12T00:15:06;101169.95;;;32.39;30.00
50632;BME280;49583;45.590;-122.498;2023-08-12T00:17:18;101166.97;;;32.39;29.69
50632;BME280;49583;45.590;-122.498;2023-08-12T00:19:28;101162.17;;;32.39;29.83
50632;BME280;49583;45.590;-122.498;2023-08-12T00:21:37;101164.84;;;32.38;29.95
50632;BME280;49583;45.590;-122.498;2023-08-12T00:23:47;101159.75;;;32.33;29.93
50632;BME280;49583;45.590;-122.498;2023-08-12T00:25:59;101157.48;;;32.30;29.79
50632;BME280;49583;45.590;-122.498;2023-08-12T00:28:09;101162.08;;;32.28;29.80
50632;BME280;49583;45.590;-122.498;2023-08-12T00:30:19;101161.87;;;32.29;29.88
50632;BME280;49583;45.590;-122.498;2023-08-12T00:32:29;101160.27;;;32.30;30.01
50632;BME280;49583;45.590;-122.498;2023-08-12T00:34:38;101156.11;;;32.31;29.75
50632;BME280;49583;45.590;-122.498;2023-08-12T00:36:48;101153.79;;;32.30;29.74
50632;BME280;49583;45.590;-122.498;2023-08-12T00:38:58;101152.62;;;32.27;29.55
50632;BME280;49583;45.590;-122.498;2023-08-12T00:41:07;101152.04;;;32.25;29.68
50632;BME280;49583;45.590;-122.498;2023-08-12T00:43:17;101154.09;;;32.25;29.60
50632;BME280;49583;45.590;-122.498;2023-08-12T00:45:27;101152.30;;;32.21;29.35
50632;BME280;49583;45.590;-122.498;2023-08-12T00:47:37;101153.26;;;32.16;29.44
50632;BME280;49583;45.590;-122.498;2023-08-12T00:49:47;101151.67;;;32.14;29.60
50632;BME280;49583;45.590;-122.498;2023-08-12T00:51:56;101151.13;;;32.11;29.36
50632;BME280;49583;45.590;-122.498;2023-08-12T00:54:07;101151.28;;;32.07;29.39
50632;BME280;49583;45.590;-122.498;2023-08-12T00:56:18;101145.75;;;32.03;29.44
50632;BME280;49583;45.590;-122.498;2023-08-12T00:58:27;101147.02;;;32.00;29.26
50632;BME280;49583;45.590;-122.498;2023-08-12T01:00:37;101152.05;;;31.94;29.27
50632;BME280;49583;45.590;-122.498;2023-08-12T01:02:48;101151.39;;;31.89;29.41
50632;BME280;49583;45.590;-122.498;2023-08-12T01:04:58;101152.27;;;31.84;29.45
50632;BME280;49583;45.590;-122.498;2023-08-12T01:07:07;101147.73;;;31.83;29.55
50632;BME280;49583;45.590;-122.498;2023-08-12T01:09:18;101148.66;;;31.81;29.68
50632;BME280;49583;45.590;-122.498;2023-08-12T01:11:36;101148.34;;;31.81;29.52
50632;BME280;49583;45.590;-122.498;2023-08-12T01:13:52;101146.44;;;31.77;29.63
50632;BME280;49583;45.590;-122.498;2023-08-12T01:16:07;101147.40;;;31.76;29.42
50632;BME280;49583;45.590;-122.498;2023-08-12T01:18:17;101150.20;;;31.70;29.15
50632;BME280;49583;45.590;-122.498;2023-08-12T01:20:27;101147.95;;;31.65;29.39
50632;BME280;49583;45.590;-122.498;2023-08-12T01:22:39;101151.54;;;31.62;29.38
50632;BME280;49583;45.590;-122.498;2023-08-12T01:24:47;101148.10;;;31.57;29.20
50632;BME280;49583;45.590;-122.498;2023-08-12T01:26:57;101149.27;;;31.53;29.23
50632;BME280;49583;45.590;-122.498;2023-08-12T01:29:07;101151.51;;;31.50;29.34
50632;BME280;49583;45.590;-122.498;2023-08-12T01:31:18;101147.45;;;31.44;29.01
50632;BME280;49583;45.590;-122.498;2023-08-12T01:33:38;101153.82;;;31.40;29.06
50632;BME280;49583;45.590;-122.498;2023-08-12T01:35:52;101147.59;;;31.35;29.22
50632;BME280;49583;45.590;-122.498;2023-08-12T01:38:04;101153.52;;;31.32;28.91
50632;BME280;49583;45.590;-122.498;2023-08-12T01:40:16;101149.32;;;31.27;29.05
50632;BME280;49583;45.590;-122.498;2023-08-12T01:42:27;101151.80;;;31.27;28.98
50632;BME280;49583;45.590;-122.498;2023-08-12T01:44:37;101153.39;;;31.24;28.82
50632;BME280;49583;45.590;-122.498;2023-08-12T01:46:47;101152.63;;;31.22;28.82
50632;BME280;49583;45.590;-122.498;2023-08-12T01:48:56;101151.09;;;31.18;28.60
50632;BME280;49583;45.590;-122.498;2023-08-12T01:51:06;101152.63;;;31.15;28.70
50632;BME280;49583;45.590;-122.498;2023-08-12T01:53:17;101151.87;;;31.12;28.67
50632;BME280;49583;45.590;-122.498;2023-08-12T01:55:26;101152.36;;;31.08;28.74
50632;BME280;49583;45.590;-122.498;2023-08-12T01:57:36;101145.21;;;31.06;28.49
50632;BME280;49583;45.590;-122.498;2023-08-12T01:59:46;101151.83;;;31.02;28.42
50632;BME280;49583;45.590;-122.498;2023-08-12T02:01:57;101149.55;;;30.97;28.61
50632;BME280;49583;45.590;-122.498;2023-08-12T02:04:08;101147.45;;;30.94;28.59
50632;BME280;49583;45.590;-122.498;2023-08-12T02:06:17;101146.14;;;30.91;28.72
50632;BME280;49583;45.590;-122.498;2023-08-12T02:08:27;101146.66;;;30.84;28.65
50632;BME280;49583;45.590;-122.498;2023-08-12T02:10:37;101148.81;;;30.78;28.42
50632;BME280;49583;45.590;-122.498;2023-08-12T02:12:46;101146.86;;;30.72;28.63
50632;BME280;49583;45.590;-122.498;2023-08-12T02:14:57;101152.91;;;30.68;28.41
50632;BME280;49583;45.590;-122.498;2023-08-12T02:17:07;101149.64;;;30.61;28.40
50632;BME280;49583;45.590;-122.498;2023-08-12T02:19:17;101154.69;;;30.53;28.44
50632;BME280;49583;45.590;-122.498;2023-08-12T02:21:28;101159.11;;;30.48;28.52
50632;BME280;49583;45.590;-122.498;2023-08-12T02:23:37;101158.02;;;30.46;28.56
50632;BME280;49583;45.590;-122.498;2023-08-12T02:25:48;101157.64;;;30.41;28.83
50632;BME280;49583;45.590;-122.498;2023-08-12T02:27:57;101156.48;;;30.37;29.15
50632;BME280;49583;45.590;-122.498;2023-08-12T02:30:09;101161.45;;;30.34;29.41
50632;BME280;49583;45.590;-122.498;2023-08-12T02:32:16;101162.31;;;30.28;29.65
50632;BME280;49583;45.590;-122.498;2023-08-12T02:34:27;101162.56;;;30.22;30.02
50632;BME280;49583;45.590;-122.498;2023-08-12T02:36:36;101163.97;;;30.18;30.18
50632;BME280;49583;45.590;-122.498;2023-08-12T02:38:46;101164.65;;;30.14;30.39
50632;BME280;49583;45.590;-122.498;2023-08-12T02:40:56;101165.61;;;30.09;30.61
50632;BME280;49583;45.590;-122.498;2023-08-12T02:43:05;101168.95;;;30.05;30.74
50632;BME280;49583;45.590;-122.498;2023-08-12T02:45:19;101172.04;;;30.01;30.95
50632;BME280;49583;45.590;-122.498;2023-08-12T02:47:29;101171.22;;;29.95;31.22
50632;BME280;49583;45.590;-122.498;2023-08-12T02:50:00;101177.80;;;29.90;31.37
50632;BME280;49583;45.590;-122.498;2023-08-12T02:52:14;101176.08;;;29.84;31.61
50632;BME280;49583;45.590;-122.498;2023-08-12T02:54:23;101179.60;;;29.78;31.90
50632;BME280;49583;45.590;-122.498;2023-08-12T02:56:36;101183.53;;;29.72;32.01
50632;BME280;49583;45.590;-122.498;2023-08-12T02:59:06;101185.16;;;29.66;32.30
50632;BME280;49583;45.590;-122.498;2023-08-12T03:01:16;101190.16;;;29.59;32.54
50632;BME280;49583;45.590;-122.498;2023-08-12T03:03:26;101188.43;;;29.55;32.64
50632;BME280;49583;45.590;-122.498;2023-08-12T03:05:36;101192.15;;;29.50;32.86
50632;BME280;49583;45.590;-122.498;2023-08-12T03:07:46;101193.60;;;29.43;33.03
50632;BME280;49583;45.590;-122.498;2023-08-12T03:09:55;101196.13;;;29.38;33.31
50632;BME280;49583;45.590;-122.498;2023-08-12T03:12:06;101200.05;;;29.31;33.39
50632;BME280;49583;45.590;-122.498;2023-08-12T03:14:16;101203.59;;;29.23;33.62
50632;BME280;49583;45.590;-122.498;2023-08-12T03:16:26;101206.63;;;29.15;33.88
50632;BME280;49583;45.590;-122.498;2023-08-12T03:18:36;101206.02;;;29.05;34.12
50632;BME280;49583;45.590;-122.498;2023-08-12T03:20:46;101206.56;;;28.96;34.32
50632;BME280;49583;45.590;-122.498;2023-08-12T03:22:55;101200.23;;;28.85;34.46
50632;BME280;49583;45.590;-122.498;2023-08-12T03:25:06;101203.55;;;28.78;34.88
50632;BME280;49583;45.590;-122.498;2023-08-12T03:27:17;101203.35;;;28.68;34.87
50632;BME280;49583;45.590;-122.498;2023-08-12T03:29:28;101210.95;;;28.61;35.04
50632;BME280;49583;45.590;-122.498;2023-08-12T03:31:38;101211.23;;;28.53;35.24
50632;BME280;49583;45.590;-122.498;2023-08-12T03:33:47;101214.69;;;28.46;35.36
50632;BME280;49583;45.590;-122.498;2023-08-12T03:35:57;101216.66;;;28.40;35.45
50632;BME280;49583;45.590;-122.498;2023-08-12T03:38:07;101221.05;;;28.33;35.66
50632;BME280;49583;45.590;-122.498;2023-08-12T03:40:17;101224.45;;;28.29;35.87
50632;BME280;49583;45.590;-122.498;2023-08-12T03:42:28;101228.35;;;28.23;35.90
50632;BME280;49583;45.590;-122.498;2023-08-12T03:44:39;101234.86;;;28.15;35.99
50632;BME280;49583;45.590;-122.498;2023-08-12T03:46:48;101235.09;;;28.09;36.20
50632;BME280;49583;45.590;-122.498;2023-08-12T03:48:58;101233.84;;;28.01;36.26
50632;BME280;49583;45.590;-122.498;2023-08-12T03:51:08;101242.14;;;27.95;36.21
50632;BME280;49583;45.590;-122.498;2023-08-12T03:53:18;101242.77;;;27.87;36.52
50632;BME280;49583;45.590;-122.498;2023-08-12T03:55:29;101246.98;;;27.79;36.51
50632;BME280;49583;45.590;-122.498;2023-08-12T03:57:39;101249.67;;;27.72;36.71
50632;BME280;49583;45.590;-122.498;2023-08-12T03:59:49;101250.27;;;27.65;36.89
50632;BME280;49583;45.590;-122.498;2023-08-12T04:01:58;101256.75;;;27.56;36.75
50632;BME280;49583;45.590;-122.498;2023-08-12T04:04:08;101259.69;;;27.48;36.95
50632;BME280;49583;45.590;-122.498;2023-08-12T04:06:21;101263.58;;;27.39;37.25
50632;BME280;49583;45.590;-122.498;2023-08-12T04:08:30;101268.69;;;27.30;37.52
50632;BME280;49583;45.590;-122.498;2023-08-12T04:10:43;101274.20;;;27.22;37.53
50632;BME280;49583;45.590;-122.498;2023-08-12T04:12:53;101276.39;;;27.15;37.71
50632;BME280;49583;45.590;-122.498;2023-08-12T04:15:03;101282.02;;;27.08;37.88
50632;BME280;49583;45.590;-122.498;2023-08-12T04:17:14;101284.34;;;27.00;37.88
50632;BME280;49583;45.590;-122.498;2023-08-12T04:19:23;101286.23;;;26.90;37.86
50632;BME280;49583;45.590;-122.498;2023-08-12T04:21:33;101289.14;;;26.80;37.92
50632;BME280;49583;45.590;-122.498;2023-08-12T04:23:43;101293.22;;;26.72;38.16
50632;BME280;49583;45.590;-122.498;2023-08-12T04:25:54;101297.10;;;26.62;38.21
50632;BME280;49583;45.590;-122.498;2023-08-12T04:28:06;101299.95;;;26.54;38.41
50632;BME280;49583;45.590;-122.498;2023-08-12T04:30:17;101301.55;;;26.47;38.67
50632;BME280;49583;45.590;-122.498;2023-08-12T04:32:28;101305.90;;;26.42;38.72
50632;BME280;49583;45.590;-122.498;2023-08-12T04:34:37;101305.55;;;26.34;38.70
50632;BME280;49583;45.590;-122.498;2023-08-12T04:36:47;101306.52;;;26.23;38.86
50632;BME280;49583;45.590;-122.498;2023-08-12T04:38:56;101311.77;;;26.12;39.05
50632;BME280;49583;45.590;-122.498;2023-08-12T04:41:06;101317.11;;;26.03;39.13
50632;BME280;49583;45.590;-122.498;2023-08-12T04:43:16;101318.89;;;25.93;39.31
50632;BME280;49583;45.590;-122.498;2023-08-12T04:45:27;101319.65;;;25.84;39.57
50632;BME280;49583;45.590;-122.498;2023-08-12T04:47:38;101323.70;;;25.76;39.70
50632;BME280;49583;45.590;-122.498;2023-08-12T04:49:50;101327.95;;;25.70;39.74
50632;BME280;49583;45.590;-122.498;2023-08-12T04:52:00;101330.09;;;25.65;39.95
50632;BME280;49583;45.590;-122.498;2023-08-12T04:54:09;101335.05;;;25.61;39.98
50632;BME280;49583;45.590;-122.498;2023-08-12T04:56:19;101341.14;;;25.54;40.16
50632;BME280;49583;45.590;-122.498;2023-08-12T04:58:29;101345.57;;;25.48;40.24
50632;BME280;49583;45.590;-122.498;2023-08-12T05:00:39;101346.59;;;25.43;40.30
50632;BME280;49583;45.590;-122.498;2023-08-12T05:02:49;101350.76;;;25.38;40.36
50632;BME280;49583;45.590;-122.498;2023-08-12T05:04:58;101348.87;;;25.31;40.55
50632;BME280;49583;45.590;-122.498;2023-08-12T05:07:10;101354.48;;;25.25;40.60
50632;BME280;49583;45.590;-122.498;2023-08-12T05:09:20;101352.91;;;25.18;40.78
50632;BME280;49583;45.590;-122.498;2023-08-12T05:11:29;101357.56;;;25.13;40.95
50632;BME280;49583;45.590;-122.498;2023-08-12T05:13:39;101360.68;;;25.07;40.97
50632;BME280;49583;45.590;-122.498;2023-08-12T05:15:51;101363.33;;;25.01;41.11
50632;BME280;49583;45.590;-122.498;2023-08-12T05:18:04;101365.36;;;24.94;41.20
50632;BME280;49583;45.590;-122.498;2023-08-12T05:20:14;101365.71;;;24.89;41.40
50632;BME280;49583;45.590;-122.498;2023-08-12T05:22:23;101365.96;;;24.86;41.47
50632;BME280;49583;45.590;-122.498;2023-08-12T05:24:35;101362.61;;;24.79;41.64
50632;BME280;49583;45.590;-122.498;2023-08-12T05:26:44;101368.65;;;24.78;41.81
50632;BME280;49583;45.590;-122.498;2023-08-12T05:28:54;101368.38;;;24.73;41.86
50632;BME280;49583;45.590;-122.498;2023-08-12T05:31:04;101373.67;;;24.66;41.99
50632;BME280;49583;45.590;-122.498;2023-08-12T05:33:13;101378.40;;;24.60;42.10
50632;BME280;49583;45.590;-122.498;2023-08-12T05:35:23;101385.14;;;24.53;42.16
50632;BME280;49583;45.590;-122.498;2023-08-12T05:37:32;101389.30;;;24.46;42.27
50632;BME280;49583;45.590;-122.498;2023-08-12T05:39:45;101394.22;;;24.41;42.41
50632;BME280;49583;45.590;-122.498;2023-08-12T05:41:57;101397.45;;;24.37;42.69
50632;BME280;49583;45.590;-122.498;2023-08-12T05:44:08;101400.27;;;24.30;42.74
50632;BME280;49583;45.590;-122.498;2023-08-12T05:46:17;101398.08;;;24.24;42.82
50632;BME280;49583;45.590;-122.498;2023-08-12T05:48:27;101397.98;;;24.16;42.89
50632;BME280;49583;45.590;-122.498;2023-08-12T05:50:36;101402.58;;;24.11;43.19
50632;BME280;49583;45.590;-122.498;2023-08-12T05:52:46;101405.42;;;24.06;43.26
50632;BME280;49583;45.590;-122.498;2023-08-12T05:54:56;101409.92;;;24.01;43.32
50632;BME280;49583;45.590;-122.498;2023-08-12T05:57:06;101409.14;;;23.97;43.51
50632;BME280;49583;45.590;-122.498;2023-08-12T05:59:15;101410.83;;;23.93;43.71
50632;BME280;49583;45.590;-122.498;2023-08-12T06:01:25;101411.84;;;23.87;43.78
50632;BME280;49583;45.590;-122.498;2023-08-12T06:03:34;101414.71;;;23.84;43.94
50632;BME280;49583;45.590;-122.498;2023-08-12T06:08:49;101411.72;;;23.74;44.21
50632;BME280;49583;45.590;-122.498;2023-08-12T06:10:59;101409.65;;;23.66;44.33
50632;BME280;49583;45.590;-122.498;2023-08-12T06:13:08;101412.86;;;23.62;44.41
50632;BME280;49583;45.590;-122.498;2023-08-12T06:15:21;101415.03;;;23.57;44.55
50632;BME280;49583;45.590;-122.498;2023-08-12T06:17:30;101415.40;;;23.51;44.66
50632;BME280;49583;45.590;-122.498;2023-08-12T06:19:40;101422.30;;;23.47;44.81
50632;BME280;49583;45.590;-122.498;2023-08-12T06:21:50;101425.02;;;23.45;44.88
50632;BME280;49583;45.590;-122.498;2023-08-12T06:23:59;101422.85;;;23.40;45.12
50632;BME280;49583;45.590;-122.498;2023-08-12T06:26:09;101428.42;;;23.37;45.03
50632;BME280;49583;45.590;-122.498;2023-08-12T06:28:18;101424.90;;;23.33;45.21
50632;BME280;49583;45.590;-122.498;2023-08-12T06:30:28;101424.41;;;23.30;45.36
50632;BME280;49583;45.590;-122.498;2023-08-12T06:32:37;101427.10;;;23.27;45.45
50632;BME280;49583;45.590;-122.498;2023-08-12T06:34:47;101427.33;;;23.24;45.67
50632;BME280;49583;45.590;-122.498;2023-08-12T06:36:56;101432.09;;;23.21;45.64
50632;BME280;49583;45.590;-122.498;2023-08-12T06:39:06;101432.46;;;23.17;45.81
50632;BME280;49583;45.590;-122.498;2023-08-12T06:41:16;101440.39;;;23.13;45.90
50632;BME280;49583;45.590;-122.498;2023-08-12T06:43:26;101444.82;;;23.10;46.00
50632;BME280;49583;45.590;-122.498;2023-08-12T06:45:37;101445.63;;;23.06;46.08
50632;BME280;49583;45.590;-122.498;2023-08-12T06:47:46;101441.90;;;23.00;46.12
50632;BME280;49583;45.590;-122.498;2023-08-12T06:49:56;101442.38;;;22.95;46.34
50632;BME280;49583;45.590;-122.498;2023-08-12T06:52:07;101444.40;;;22.89;46.45
50632;BME280;49583;45.590;-122.498;2023-08-12T06:54:16;101444.27;;;22.83;46.63
50632;BME280;49583;45.590;-122.498;2023-08-12T06:56:26;101442.57;;;22.79;46.73
50632;BME280;49583;45.590;-122.498;2023-08-12T06:58:36;101442.16;;;22.74;46.83
50632;BME280;49583;45.590;-122.498;2023-08-12T07:00:46;101437.68;;;22.70;46.98
50632;BME280;49583;45.590;-122.498;2023-08-12T07:02:55;101440.31;;;22.64;47.12
50632;BME280;49583;45.590;-122.498;2023-08-12T07:05:06;101438.17;;;22.62;47.31
50632;BME280;49583;45.590;-122.498;2023-08-12T07:07:16;101438.02;;;22.59;47.39
50632;BME280;49583;45.590;-122.498;2023-08-12T07:09:25;101437.49;;;22.56;47.46
50632;BME280;49583;45.590;-122.498;2023-08-12T07:11:34;101437.31;;;22.53;47.61
50632;BME280;49583;45.590;-122.498;2023-08-12T07:13:44;101443.34;;;22.50;47.74
50632;BME280;49583;45.590;-122.498;2023-08-12T07:15:55;101443.69;;;22.47;47.85
50632;BME280;49583;45.590;-122.498;2023-08-12T07:18:06;101442.16;;;22.43;47.99
50632;BME280;49583;45.590;-122.498;2023-08-12T07:20:15;101438.86;;;22.40;48.17
50632;BME280;49583;45.590;-122.498;2023-08-12T07:22:25;101442.20;;;22.36;48.29
50632;BME280;49583;45.590;-122.498;2023-08-12T07:24:34;101440.89;;;22.32;48.31
50632;BME280;49583;45.590;-122.498;2023-08-12T07:26:44;101445.02;;;22.28;48.48
50632;BME280;49583;45.590;-122.498;2023-08-12T07:28:54;101445.22;;;22.25;48.54
50632;BME280;49583;45.590;-122.498;2023-08-12T07:31:04;101445.21;;;22.21;48.53
50632;BME280;49583;45.590;-122.498;2023-08-12T07:33:13;101449.10;;;22.15;48.88
50632;BME280;49583;45.590;-122.498;2023-08-12T07:35:23;101445.83;;;22.11;48.95
50632;BME280;49583;45.590;-122.498;2023-08-12T07:37:33;101443.58;;;22.07;48.95
50632;BME280;49583;45.590;-122.498;2023-08-12T07:39:42;101447.77;;;22.03;49.19
50632;BME280;49583;45.590;-122.498;2023-08-12T07:41:55;101444.02;;;21.98;49.38
50632;BME280;49583;45.590;-122.498;2023-08-12T07:44:05;101444.13;;;21.93;49.38
50632;BME280;49583;45.590;-122.498;2023-08-12T07:46:15;101448.27;;;21.87;49.48
50632;BME280;49583;45.590;-122.498;2023-08-12T07:48:25;101448.26;;;21.82;49.66
50632;BME280;49583;45.590;-122.498;2023-08-12T07:50:35;101451.16;;;21.79;49.82
50632;BME280;49583;45.590;-122.498;2023-08-12T07:52:44;101453.77;;;21.75;49.90
50632;BME280;49583;45.590;-122.498;2023-08-12T07:54:54;101458.02;;;21.71;50.12
50632;BME280;49583;45.590;-122.498;2023-08-12T07:57:04;101461.57;;;21.68;50.16
50632;BME280;49583;45.590;-122.498;2023-08-12T07:59:13;101455.96;;;21.64;50.18
50632;BME280;49583;45.590;-122.498;2023-08-12T08:01:23;101460.53;;;21.61;50.36
50632;BME280;49583;45.590;-122.498;2023-08-12T08:03:33;101465.84;;;21.57;50.59
50632;BME280;49583;45.590;-122.498;2023-08-12T08:05:43;101467.73;;;21.53;50.62
50632;BME280;49583;45.590;-122.498;2023-08-12T08:07:53;101470.22;;;21.50;50.71
50632;BME280;49583;45.590;-122.498;2023-08-12T08:10:03;101469.92;;;21.48;50.89
50632;BME280;49583;45.590;-122.498;2023-08-12T08:12:13;101470.29;;;21.44;50.94
50632;BME280;49583;45.590;-122.498;2023-08-12T08:14:23;101471.45;;;21.38;51.07
50632;BME280;49583;45.590;-122.498;2023-08-12T08:16:33;101473.76;;;21.32;51.07
50632;BME280;49583;45.590;-122.498;2023-08-12T08:18:43;101481.29;;;21.27;51.22
50632;BME280;49583;45.590;-122.498;2023-08-12T08:20:52;101481.63;;;21.23;51.41
50632;BME280;49583;45.590;-122.498;2023-08-12T08:23:02;101484.07;;;21.20;51.48
50632;BME280;49583;45.590;-122.498;2023-08-12T08:25:12;101482.55;;;21.17;51.59
50632;BME280;49583;45.590;-122.498;2023-08-12T08:27:23;101480.41;;;21.14;51.95
50632;BME280;49583;45.590;-122.498;2023-08-12T08:29:33;101479.36;;;21.08;51.99
50632;BME280;49583;45.590;-122.498;2023-08-12T08:31:42;101480.08;;;21.07;52.02
50632;BME280;49583;45.590;-122.498;2023-08-12T08:33:52;101480.12;;;21.04;52.15
50632;BME280;49583;45.590;-122.498;2023-08-12T08:36:01;101481.33;;;21.02;52.29
50632;BME280;49583;45.590;-122.498;2023-08-12T08:38:10;101483.48;;;21.00;52.38
50632;BME280;49583;45.590;-122.498;2023-08-12T08:40:20;101477.31;;;20.98;52.42
50632;BME280;49583;45.590;-122.498;2023-08-12T08:42:30;101474.23;;;20.95;52.48
50632;BME280;49583;45.590;-122.498;2023-08-12T08:44:42;101476.23;;;20.93;52.50
50632;BME280;49583;45.590;-122.498;2023-08-12T08:46:54;101476.56;;;20.91;52.57
50632;BME280;49583;45.590;-122.498;2023-08-12T08:49:06;101467.63;;;20.87;52.76
50632;BME280;49583;45.590;-122.498;2023-08-12T08:51:17;101475.98;;;20.85;52.99
50632;BME280;49583;45.590;-122.498;2023-08-12T08:53:29;101472.05;;;20.82;53.02
50632;BME280;49583;45.590;-122.498;2023-08-12T08:55:41;101475.88;;;20.79;53.01
50632;BME280;49583;45.590;-122.498;2023-08-12T08:57:51;101477.81;;;20.75;52.98
50632;BME280;49583;45.590;-122.498;2023-08-12T09:00:10;101482.62;;;20.70;53.14
50632;BME280;49583;45.590;-122.498;2023-08-12T09:02:25;101483.06;;;20.66;53.24
50632;BME280;49583;45.590;-122.498;2023-08-12T09:04:35;101482.04;;;20.62;53.33
50632;BME280;49583;45.590;-122.498;2023-08-12T09:06:46;101484.92;;;20.59;53.44
50632;BME280;49583;45.590;-122.498;2023-08-12T09:08:56;101491.95;;;20.56;53.50
50632;BME280;49583;45.590;-122.498;2023-08-12T09:11:06;101493.33;;;20.52;53.56
50632;BME280;49583;45.590;-122.498;2023-08-12T09:13:16;101496.77;;;20.48;53.69
50632;BME280;49583;45.590;-122.498;2023-08-12T09:15:26;101498.38;;;20.44;53.75
50632;BME280;49583;45.590;-122.498;2023-08-12T09:17:36;101500.88;;;20.40;53.83
50632;BME280;49583;45.590;-122.498;2023-08-12T09:19:46;101500.90;;;20.34;53.90
50632;BME280;49583;45.590;-122.498;2023-08-12T09:21:56;101504.86;;;20.30;53.98
50632;BME280;49583;45.590;-122.498;2023-08-12T09:24:07;101500.60;;;20.27;54.18
50632;BME280;49583;45.590;-122.498;2023-08-12T09:26:18;101501.00;;;20.24;54.26
50632;BME280;49583;45.590;-122.498;2023-08-12T09:28:28;101499.13;;;20.20;54.35
50632;BME280;49583;45.590;-122.498;2023-08-12T09:30:38;101497.48;;;20.17;54.38
50632;BME280;49583;45.590;-122.498;2023-08-12T09:32:59;101496.04;;;20.15;54.58
50632;BME280;49583;45.590;-122.498;2023-08-12T09:35:17;101496.32;;;20.12;54.61
50632;BME280;49583;45.590;-122.498;2023-08-12T09:37:26;101498.79;;;20.07;54.66
50632;BME280;49583;45.590;-122.498;2023-08-12T09:39:36;101501.59;;;20.03;54.82
50632;BME280;49583;45.590;-122.498;2023-08-12T09:41:46;101504.85;;;20.00;54.92
50632;BME280;49583;45.590;-122.498;2023-08-12T09:43:57;101504.48;;;19.96;55.05
50632;BME280;49583;45.590;-122.498;2023-08-12T09:46:06;101503.38;;;19.91;55.14
50632;BME280;49583;45.590;-122.498;2023-08-12T09:48:18;101504.90;;;19.89;55.18
50632;BME280;49583;45.590;-122.498;2023-08-12T09:50:28;101504.05;;;19.86;55.33
50632;BME280;49583;45.590;-122.498;2023-08-12T09:52:38;101506.73;;;19.83;55.44
50632;BME280;49583;45.590;-122.498;2023-08-12T09:54:48;101514.23;;;19.80;55.57
50632;BME280;49583;45.590;-122.498;2023-08-12T09:57:01;101513.27;;;19.76;55.62
50632;BME280;49583;45.590;-122.498;2023-08-12T09:59:11;101515.20;;;19.74;55.64
50632;BME280;49583;45.590;-122.498;2023-08-12T10:01:22;101512.73;;;19.72;55.78
50632;BME280;49583;45.590;-122.498;2023-08-12T10:03:33;101511.08;;;19.68;55.83
50632;BME280;49583;45.590;-122.498;2023-08-12T10:05:44;101512.52;;;19.65;55.84
50632;BME280;49583;45.590;-122.498;2023-08-12T10:07:54;101511.33;;;19.62;55.94
50632;BME280;49583;45.590;-122.498;2023-08-12T10:10:05;101513.64;;;19.59;55.98
50632;BME280;49583;45.590;-122.498;2023-08-12T10:12:15;101514.52;;;19.57;56.13
50632;BME280;49583;45.590;-122.498;2023-08-12T10:14:27;101516.67;;;19.54;56.06
50632;BME280;49583;45.590;-122.498;2023-08-12T10:16:37;101514.87;;;19.51;56.21
50632;BME280;49583;45.590;-122.498;2023-08-12T10:18:48;101515.95;;;19.46;56.32
50632;BME280;49583;45.590;-122.498;2023-08-12T10:20:58;101519.69;;;19.43;56.59
50632;BME280;49583;45.590;-122.498;2023-08-12T10:23:09;101523.65;;;19.38;56.88
50632;BME280;49583;45.590;-122.498;2023-08-12T10:25:20;101528.42;;;19.34;57.04
50632;BME280;49583;45.590;-122.498;2023-08-12T10:27:31;101531.43;;;19.30;57.20
50632;BME280;49583;45.590;-122.498;2023-08-12T10:29:40;101534.79;;;19.26;57.28
50632;BME280;49583;45.590;-122.498;2023-08-12T10:43:50;101530.59;;;19.03;57.76
50632;BME280;49583;45.590;-122.498;2023-08-12T10:46:00;101530.73;;;18.99;57.76
50632;BME280;49583;45.590;-122.498;2023-08-12T10:48:18;101536.94;;;18.96;57.87
50632;BME280;49583;45.590;-122.498;2023-08-12T10:50:30;101534.69;;;18.92;57.97
50632;BME280;49583;45.590;-122.498;2023-08-12T10:52:40;101536.52;;;18.89;58.03
50632;BME280;49583;45.590;-122.498;2023-08-12T10:54:52;101541.73;;;18.83;58.14
50632;BME280;49583;45.590;-122.498;2023-08-12T10:57:09;101544.84;;;18.79;58.21
50632;BME280;49583;45.590;-122.498;2023-08-12T10:59:50;101546.00;;;18.74;58.33
50632;BME280;49583;45.590;-122.498;2023-08-12T11:02:11;101546.48;;;18.69;58.41
50632;BME280;49583;45.590;-122.498;2023-08-12T11:04:22;101545.84;;;18.65;58.58
50632;BME280;49583;45.590;-122.498;2023-08-12T11:06:44;101546.77;;;18.62;58.62
50632;BME280;49583;45.590;-122.498;2023-08-12T11:08:55;101546.45;;;18.59;58.80
50632;BME280;49583;45.590;-122.498;2023-08-12T11:11:21;101545.67;;;18.57;58.83
50632;BME280;49583;45.590;-122.498;2023-08-12T11:13:31;101551.17;;;18.54;58.94